CheckWX is a tool to help pilots better visualize weather data.  It is not intended as a substitute for an official pre-flight weather briefing.

18:32:11 UTC

KBYL METAR
Williamsburg-Whitley County Airport
Williamsburg, Kentucky, USA
Current

17 mins ago

KBYL 221815Z AUTO 06004KT 7SM SCT005 OVC026 07/07 A3027 RMK AO1 P0001
Observed
Feb-22 @ 18:15 UTC
Wind
  • 060° at 4 KTS
Visibility
7 SM
Flight Rules
MVFR
Cloud Levels
  • Scattered at 500' AGL
  • Overcast at 2,600' AGL
Temperature
C / 45°F
Dewpoint
C / 45°F
Humidity
100%
Altimeter
30.27" Hg
Pressure
1025.02 hPa
Current Rain
0.01"
Previous

37 mins ago

KBYL 221755Z AUTO 05005KT 5SM BKN006 BKN024 OVC050 07/07 A3029 RMK AO1 P0002
Observed
Feb-22 @ 17:55 UTC
Wind
  • 050° at 5 KTS
Visibility
5 SM
Flight Rules
IFR
Cloud Levels
  • Broken at 600' AGL
  • Broken at 2,400' AGL
  • Overcast at 5,000' AGL
Temperature
C / 45°F
Dewpoint
C / 45°F
Humidity
100%
Altimeter
30.29" Hg
Pressure
1025.72 hPa
Current Rain
0.02"
Previous

57 mins ago

KBYL 221735Z AUTO 05004KT 5SM BKN008 BKN019 OVC055 07/07 A3029 RMK AO1 P0002
Observed
Feb-22 @ 17:35 UTC
Wind
  • 050° at 4 KTS
Visibility
5 SM
Flight Rules
IFR
Cloud Levels
  • Broken at 800' AGL
  • Broken at 1,900' AGL
  • Overcast at 5,500' AGL
Temperature
C / 45°F
Dewpoint
C / 45°F
Humidity
100%
Altimeter
30.29" Hg
Pressure
1025.72 hPa
Current Rain
0.02"